createdAt,value
2017-08-10T00:00:47.440Z,7.93
2017-08-10T00:03:15.073Z,10.00
2017-08-10T00:05:42.762Z,8.53
2017-08-10T00:08:10.380Z,7.57
2017-08-10T00:10:38.005Z,10.60
2017-08-10T00:13:05.664Z,9.77
2017-08-10T00:15:33.290Z,8.87
2017-08-10T00:18:01.183Z,8.63
2017-08-10T00:20:28.947Z,12.03
2017-08-10T00:22:56.573Z,10.40
2017-08-10T00:25:24.377Z,9.80
2017-08-10T00:27:52.054Z,10.53
2017-08-10T00:30:20.010Z,11.20
2017-08-10T00:32:47.624Z,10.83
2017-08-10T00:35:15.449Z,13.60
2017-08-10T00:37:43.073Z,10.73
2017-08-10T00:40:10.985Z,19.53
2017-08-10T00:42:38.673Z,11.20
2017-08-10T00:45:06.515Z,9.23
2017-08-10T00:47:34.137Z,9.70
2017-08-10T00:50:01.808Z,9.93
2017-08-10T00:52:29.497Z,8.87
2017-08-10T00:54:57.116Z,8.80
2017-08-10T00:57:24.771Z,7.20
2017-08-10T00:59:53.197Z,6.50
2017-08-10T01:02:20.816Z,6.20
2017-08-10T01:04:48.489Z,8.23
2017-08-10T01:07:16.109Z,5.97
2017-08-10T01:09:43.720Z,9.67
2017-08-10T01:12:11.405Z,5.50
2017-08-10T01:14:39.165Z,6.83
2017-08-10T01:17:06.942Z,7.20
2017-08-10T01:19:34.608Z,6.40
2017-08-10T01:22:03.017Z,7.97
2017-08-10T01:24:30.637Z,7.60
2017-08-10T01:26:58.325Z,9.80
2017-08-10T01:29:26.977Z,8.10
2017-08-10T01:31:54.609Z,5.93
2017-08-10T01:34:22.775Z,8.33
2017-08-10T01:36:51.175Z,7.40
2017-08-10T01:39:18.888Z,9.23
2017-08-10T01:41:46.576Z,7.40
2017-08-10T01:44:14.386Z,7.20
2017-08-10T01:46:42.058Z,10.00
2017-08-10T01:49:09.970Z,10.27
2017-08-10T01:51:37.643Z,11.50
2017-08-10T01:54:05.453Z,8.57
2017-08-10T01:56:33.201Z,10.10
2017-08-10T01:59:00.854Z,9.07
2017-08-10T02:01:28.548Z,10.00
2017-08-10T02:03:56.279Z,12.07
2017-08-10T02:06:24.709Z,15.93
2017-08-10T02:08:52.340Z,10.50
2017-08-10T02:11:20.022Z,8.60
2017-08-10T02:13:47.913Z,10.37
2017-08-10T02:16:15.536Z,10.67
2017-08-10T02:18:43.532Z,8.30
2017-08-10T02:21:11.147Z,10.93
2017-08-10T02:23:38.771Z,9.83
2017-08-10T02:26:06.441Z,9.17
2017-08-10T02:28:34.077Z,11.30
2017-08-10T02:31:01.692Z,11.90
2017-08-10T02:33:30.157Z,12.50
2017-08-10T02:35:57.787Z,9.80
2017-08-10T02:38:25.412Z,11.43
2017-08-10T02:40:53.094Z,12.53
2017-08-10T02:43:20.721Z,10.67
2017-08-10T02:45:48.359Z,13.03
2017-08-10T02:48:16.073Z,13.90
2017-08-10T02:50:43.704Z,14.03
2017-08-10T02:53:11.965Z,9.97
2017-08-10T02:55:40.596Z,9.70
2017-08-10T02:58:08.217Z,13.10
2017-08-10T03:00:35.850Z,14.37
2017-08-10T03:03:03.844Z,12.67
2017-08-10T03:05:31.464Z,9.83
2017-08-10T03:07:59.088Z,10.63
2017-08-10T03:10:27.752Z,12.93
2017-08-10T03:12:56.041Z,9.57
2017-08-10T03:15:23.681Z,9.93
2017-08-10T03:17:51.370Z,12.73
2017-08-10T03:20:18.990Z,10.60
2017-08-10T03:22:47.338Z,9.87
2017-08-10T03:25:15.267Z,9.97
2017-08-10T03:27:43.034Z,13.30
2017-08-10T03:30:10.673Z,10.80
2017-08-10T03:32:40.624Z,11.10
2017-08-10T03:35:08.412Z,11.30
2017-08-10T03:37:36.300Z,12.07
2017-08-10T03:40:03.968Z,13.67
2017-08-10T03:42:31.594Z,10.83
2017-08-10T03:44:59.321Z,12.17
2017-08-10T03:47:27.016Z,10.97
2017-08-10T03:49:54.664Z,11.50
2017-08-10T03:52:22.285Z,13.53
2017-08-10T03:54:49.971Z,21.63
2017-08-10T03:57:17.604Z,10.67
2017-08-10T03:59:45.232Z,11.70
2017-08-10T04:02:12.927Z,15.00
2017-08-10T04:04:41.048Z,15.70
2017-08-10T04:07:08.816Z,11.03
2017-08-10T04:09:36.529Z,13.10
2017-08-10T04:12:04.175Z,9.67
2017-08-10T04:14:32.422Z,12.33
2017-08-10T04:17:00.270Z,17.20
2017-08-10T04:19:27.903Z,14.70
2017-08-10T04:21:55.728Z,11.13
2017-08-10T04:24:23.424Z,13.60
2017-08-10T04:26:51.053Z,11.17
2017-08-10T14:15:09.189Z,44.63
2017-08-10T14:17:36.855Z,47.10
2017-08-10T14:20:04.484Z,44.50
2017-08-10T14:22:32.373Z,41.00
2017-08-10T14:25:00.054Z,40.33
2017-08-10T14:27:27.817Z,46.70
2017-08-10T14:29:55.435Z,52.50
2017-08-10T14:32:23.158Z,59.50
2017-08-10T14:34:51.541Z,46.87
2017-08-10T14:37:19.924Z,50.37
2017-08-10T14:39:47.597Z,53.80
2017-08-10T14:42:15.237Z,47.50
2017-08-10T14:44:42.864Z,47.73
2017-08-10T14:47:10.545Z,51.80
2017-08-10T14:49:38.168Z,51.30
2017-08-10T14:52:06.571Z,47.23
2017-08-10T14:54:34.234Z,51.73
2017-08-10T14:57:02.172Z,49.60
2017-08-10T14:59:30.337Z,42.27
2017-08-10T15:01:58.010Z,44.97
2017-08-10T15:04:25.916Z,37.10
2017-08-10T15:06:54.843Z,44.70
2017-08-10T15:09:23.384Z,34.43
2017-08-10T15:11:51.005Z,10.40
2017-08-10T15:14:18.633Z,5.77
2017-08-10T15:16:46.303Z,2.30
2017-08-10T15:19:13.916Z,1.93
2017-08-10T15:21:41.533Z,2.70
2017-08-10T15:24:09.985Z,1.00
2017-08-10T15:26:37.618Z,2.47
2017-08-10T15:29:05.233Z,1.20
2017-08-10T15:31:32.923Z,1.33
2017-08-10T15:34:00.536Z,1.23
2017-08-10T15:36:28.382Z,1.03
2017-08-10T15:38:56.064Z,1.03
2017-08-10T15:41:23.932Z,0.90
2017-08-10T15:43:51.545Z,0.90
2017-08-10T15:46:19.243Z,0.80
2017-08-10T15:48:46.857Z,0.80
2017-08-10T15:51:14.493Z,1.10
2017-08-10T15:53:42.182Z,0.90
2017-08-10T15:56:10.562Z,0.80
2017-08-10T15:58:39.218Z,1.23
2017-08-10T16:01:06.996Z,1.23
2017-08-10T16:03:34.618Z,1.00
2017-08-10T16:06:02.237Z,0.80
2017-08-10T16:08:30.720Z,1.00
2017-08-10T16:10:58.345Z,0.80
2017-08-10T16:13:26.117Z,1.40
2017-08-10T16:15:53.947Z,1.23
2017-08-10T16:18:21.576Z,2.50
2017-08-10T16:20:49.197Z,3.63
2017-08-10T16:23:17.242Z,0.90
2017-08-10T16:25:44.873Z,1.40
2017-08-10T16:28:12.491Z,1.23
2017-08-10T16:30:40.319Z,1.17
2017-08-10T16:33:08.639Z,1.10
2017-08-10T16:35:36.261Z,2.80
2017-08-10T16:38:03.926Z,1.50
2017-08-10T16:40:31.608Z,1.40
2017-08-10T16:42:59.232Z,1.27
2017-08-10T16:45:26.943Z,6.47
2017-08-10T16:47:54.559Z,2.80
2017-08-10T16:50:22.995Z,2.77
2017-08-10T16:52:50.673Z,1.60
2017-08-10T16:55:18.305Z,1.87
2017-08-10T16:57:45.917Z,1.57
2017-08-10T17:00:13.585Z,2.40
2017-08-10T17:02:41.219Z,2.50
2017-08-10T17:05:08.846Z,1.70
2017-08-10T17:07:36.726Z,2.00
2017-08-10T17:10:04.364Z,1.30
2017-08-10T17:12:32.001Z,1.70
2017-08-10T17:15:00.037Z,1.37
2017-08-10T17:17:27.648Z,3.53
2017-08-10T17:19:56.720Z,4.57
2017-08-10T17:22:24.382Z,3.73
2017-08-10T17:24:52.005Z,2.70
2017-08-10T17:27:19.786Z,2.13
2017-08-10T17:29:47.770Z,2.20
2017-08-10T17:32:15.392Z,2.27
2017-08-10T17:34:43.116Z,1.43
2017-08-10T17:37:11.153Z,4.27
2017-08-10T17:39:40.457Z,3.27
2017-08-10T17:42:08.781Z,2.93
2017-08-10T17:44:36.647Z,2.27
2017-08-10T17:47:04.465Z,3.40
2017-08-10T17:49:32.440Z,2.90
2017-08-10T17:52:00.792Z,4.33
2017-08-10T17:54:28.811Z,4.53
2017-08-10T17:56:56.880Z,3.53
2017-08-10T17:59:24.953Z,2.40
2017-08-10T18:01:53.119Z,5.80
2017-08-10T18:04:21.466Z,3.00
2017-08-10T18:06:49.519Z,3.90
2017-08-10T18:09:18.216Z,4.23
2017-08-10T18:11:46.009Z,4.00
2017-08-10T18:14:14.241Z,3.77
2017-08-10T18:16:43.084Z,3.70
2017-08-10T18:19:11.373Z,4.17
2017-08-10T18:21:39.197Z,3.20
2017-08-10T18:24:07.071Z,5.10
2017-08-10T18:26:34.997Z,4.07
2017-08-10T18:29:02.953Z,2.53
2017-08-10T18:31:30.655Z,4.80
2017-08-10T18:33:58.348Z,3.73
2017-08-10T18:36:26.504Z,3.13
2017-08-10T18:38:54.379Z,4.03
2017-08-10T18:41:22.356Z,2.27
2017-08-10T18:43:50.405Z,3.30
2017-08-10T18:46:18.485Z,2.70
2017-08-10T18:48:46.255Z,2.80
2017-08-10T18:51:14.332Z,2.80
2017-08-10T18:53:42.144Z,2.07
2017-08-10T18:56:10.095Z,4.80
2017-08-10T18:58:38.088Z,4.10
2017-08-10T19:01:06.269Z,2.60
2017-08-10T19:03:34.160Z,3.63
2017-08-10T19:06:02.496Z,4.90
2017-08-10T19:08:30.766Z,6.43
2017-08-10T19:10:58.739Z,4.03
2017-08-10T19:13:27.224Z,8.37
2017-08-10T19:15:55.331Z,2.50
2017-08-10T19:18:24.288Z,2.17
2017-08-10T19:20:52.238Z,4.63
2017-08-10T19:23:19.889Z,3.30
2017-08-10T19:25:47.582Z,5.43
2017-08-10T19:28:15.310Z,3.70
2017-08-10T19:30:43.807Z,2.53
2017-08-10T19:33:12.116Z,3.43
2017-08-10T19:35:40.189Z,4.40
2017-08-10T19:38:07.947Z,2.60
2017-08-10T19:40:35.713Z,3.37
2017-08-10T19:43:03.800Z,2.73
2017-08-10T19:45:31.420Z,2.23
2017-08-10T19:47:59.341Z,3.30
2017-08-10T19:50:27.489Z,5.23
2017-08-10T19:52:55.813Z,2.67
2017-08-10T19:55:24.047Z,2.83
2017-08-10T19:57:51.736Z,5.17
2017-08-10T20:00:19.651Z,3.10
2017-08-10T20:02:47.329Z,4.13
2017-08-10T20:05:15.272Z,2.60
2017-08-10T20:07:43.063Z,2.70
2017-08-10T20:10:10.674Z,3.10
2017-08-10T20:12:38.351Z,4.93
2017-08-10T20:15:05.988Z,2.43
2017-08-10T20:17:33.612Z,2.90
2017-08-10T20:20:01.265Z,3.10
2017-08-10T20:22:28.885Z,1.93
2017-08-10T20:24:56.644Z,3.20
2017-08-10T20:27:24.317Z,1.80
2017-08-10T20:29:53.356Z,3.20
2017-08-10T20:32:21.550Z,2.33
2017-08-10T20:34:49.213Z,5.80
2017-08-10T20:37:17.047Z,2.37
2017-08-10T20:39:44.892Z,5.70
2017-08-10T20:42:13.005Z,2.20
2017-08-10T20:44:41.000Z,2.77
2017-08-10T20:47:09.089Z,2.57
2017-08-10T20:49:37.327Z,2.80
2017-08-10T20:52:06.103Z,4.03
2017-08-10T20:54:34.113Z,4.30
2017-08-10T20:57:02.586Z,2.37
2017-08-10T20:59:31.574Z,2.17
2017-08-10T21:01:59.354Z,2.97
2017-08-10T21:04:29.371Z,1.70
2017-08-10T21:06:57.331Z,4.83
2017-08-10T21:09:25.422Z,2.20
2017-08-10T21:11:54.241Z,2.20
2017-08-10T21:14:24.207Z,7.10
2017-08-10T21:16:52.598Z,2.67
2017-08-10T21:19:21.216Z,2.03
2017-08-10T21:21:49.823Z,1.93
2017-08-10T21:24:18.335Z,2.13
2017-08-10T21:26:47.637Z,2.77
2017-08-10T21:29:17.208Z,3.60
2017-08-10T21:31:46.136Z,2.83
2017-08-10T21:34:14.106Z,3.17
2017-08-10T21:36:41.728Z,1.73
2017-08-10T21:39:09.348Z,2.57
2017-08-10T21:41:37.008Z,2.20
2017-08-10T21:44:04.620Z,2.50
2017-08-10T21:46:32.232Z,2.30
2017-08-10T21:48:59.914Z,2.83
2017-08-10T21:51:27.524Z,2.27
2017-08-10T21:53:55.139Z,1.70
2017-08-10T21:56:22.812Z,1.97
2017-08-10T21:58:50.430Z,5.03
2017-08-10T22:01:18.087Z,2.57
2017-08-10T22:03:45.784Z,2.93
2017-08-10T22:06:13.467Z,2.70
2017-08-10T22:08:41.115Z,3.80
2017-08-10T22:11:08.802Z,1.67
2017-08-10T22:13:36.425Z,2.27
2017-08-10T22:16:04.279Z,2.73
2017-08-10T22:18:31.953Z,4.50
2017-08-10T22:21:00.119Z,2.40
2017-08-10T22:23:27.742Z,3.37
2017-08-10T22:25:55.414Z,2.57
2017-08-10T22:28:23.034Z,5.50
2017-08-10T22:30:50.645Z,4.13
2017-08-10T22:33:18.354Z,4.03
2017-08-10T22:35:45.969Z,2.90
2017-08-10T22:38:13.577Z,3.27
2017-08-10T22:40:41.830Z,3.23
2017-08-10T22:43:09.472Z,1.67
2017-08-10T22:45:37.089Z,1.67
2017-08-10T22:48:04.796Z,3.10
2017-08-10T22:50:32.632Z,2.50
2017-08-10T22:53:01.565Z,4.43
2017-08-10T22:55:29.446Z,3.37
2017-08-10T22:57:58.202Z,3.23
2017-08-10T23:00:25.833Z,4.40
2017-08-10T23:02:54.541Z,2.80
2017-08-10T23:05:25.079Z,2.60
2017-08-10T23:07:52.700Z,4.37
2017-08-10T23:10:20.385Z,5.90
2017-08-10T23:12:48.005Z,4.10
2017-08-10T23:15:15.659Z,4.10
2017-08-10T23:17:43.550Z,2.57
2017-08-10T23:20:11.400Z,3.63
2017-08-10T23:22:39.479Z,4.83
2017-08-10T23:25:07.140Z,4.53
2017-08-10T23:27:34.753Z,5.07
2017-08-10T23:30:02.371Z,4.23
2017-08-10T23:32:30.035Z,3.23
2017-08-10T23:34:57.652Z,3.70
2017-08-10T23:37:25.269Z,6.40
2017-08-10T23:39:53.952Z,4.90
2017-08-10T23:42:21.573Z,5.50
2017-08-10T23:44:49.190Z,5.03
2017-08-10T23:47:16.841Z,4.30
2017-08-10T23:49:44.471Z,6.47
2017-08-10T23:52:12.257Z,7.83
2017-08-10T23:54:40.094Z,6.67
2017-08-10T23:57:07.882Z,10.23
2017-08-10T23:59:35.493Z,8.10
